Time;durP1;ratioP1;P1;durP2;ratioP2;P2;SDS_P1;SDS_P2;PMS_P1;PMS_P2;Temp;Humidity;BMP_temperature;BMP_pressure;BME280_temperature;BME280_humidity;BME280_pressure;Samples;Min_cycle;Max_cycle;Signal;HPM_P1;HPM_P2
2021/10/09 00:01:27;;;;;;;17.77;5.03;;;;;;;5.21;41.83;102521.03;1860956;76;20832;-70
2021/10/09 00:03:54;;;;;;;9.70;4.75;;;;;;;5.18;41.86;102515.41;1860705;76;20987;-71
2021/10/09 00:06:21;;;;;;;7.33;3.80;;;;;;;5.17;41.96;102515.41;1860678;77;21435;-71
2021/10/09 00:08:48;;;;;;;9.00;3.92;;;;;;;5.14;42.01;102520.65;1860768;77;21143;-71
2021/10/09 00:11:20;;;;;;;10.95;4.35;;;;;;;5.13;41.86;102520.20;1860908;77;20863;-72
2021/10/09 00:13:47;;;;;;;15.40;4.30;;;;;;;5.11;41.90;102520.65;1860642;76;20955;-71
2021/10/09 00:16:15;;;;;;;11.90;4.42;;;;;;;5.08;41.86;102522.84;1860871;77;20871;-71
2021/10/09 00:18:43;;;;;;;14.47;6.33;;;;;;;5.07;42.13;102514.63;1860917;77;20852;-71
2021/10/09 00:21:10;;;;;;;13.68;4.53;;;;;;;5.05;42.09;102509.88;1860760;77;21147;-71
2021/10/09 00:23:37;;;;;;;7.03;4.03;;;;;;;5.02;42.19;102503.37;1860704;77;20950;-71
2021/10/09 00:26:04;;;;;;;10.08;4.10;;;;;;;5.01;42.33;102511.20;1860878;77;20906;-69
2021/10/09 00:28:31;;;;;;;10.45;4.03;;;;;;;4.98;42.46;102514.24;1860591;77;20848;-70
2021/10/09 00:30:58;;;;;;;8.30;4.45;;;;;;;4.96;42.31;102508.63;1860968;77;20919;-70
2021/10/09 00:33:25;;;;;;;8.53;3.75;;;;;;;4.94;42.63;102509.93;1860603;77;21022;-71
2021/10/09 00:35:52;;;;;;;8.10;3.65;;;;;;;4.92;42.68;102509.08;1860556;77;21364;-71
2021/10/09 00:38:18;;;;;;;8.43;3.85;;;;;;;4.89;42.82;102508.22;1849801;76;20961;-72
2021/10/09 00:40:45;;;;;;;5.42;3.20;;;;;;;4.87;42.95;102508.66;1835340;76;20965;-71
2021/10/09 00:43:12;;;;;;;7.35;3.75;;;;;;;4.86;42.80;102505.65;1835758;77;20848;-73
2021/10/09 00:45:39;;;;;;;7.60;2.67;;;;;;;4.84;42.60;102509.98;1835418;77;21523;-72
2021/10/09 00:48:06;;;;;;;12.43;3.20;;;;;;;4.81;42.71;102516.08;1835523;77;20871;-71
2021/10/09 00:50:33;;;;;;;8.05;2.80;;;;;;;4.80;42.61;102517.37;1835281;77;20871;-72
2021/10/09 00:53:00;;;;;;;7.58;3.92;;;;;;;4.78;42.79;102517.41;1834787;77;20919;-72
2021/10/09 00:55:27;;;;;;;7.40;3.20;;;;;;;4.76;42.64;102522.59;1835194;77;20985;-73
2021/10/09 00:57:54;;;;;;;6.15;3.47;;;;;;;4.74;42.73;102520.44;1834737;78;20992;-70
2021/10/09 01:00:21;;;;;;;11.03;3.20;;;;;;;4.72;42.49;102514.38;1834658;77;20851;-72
2021/10/09 01:02:49;;;;;;;10.28;3.12;;;;;;;4.71;42.68;102515.68;1835168;78;20906;-71
2021/10/09 01:05:16;;;;;;;5.53;3.02;;;;;;;4.69;42.58;102521.31;1835051;77;20918;-72
2021/10/09 01:07:43;;;;;;;6.78;3.25;;;;;;;4.67;42.71;102514.85;1834096;77;21341;-71
2021/10/09 01:10:10;;;;;;;12.65;3.50;;;;;;;4.66;42.86;102514.84;1835158;77;21462;-71
2021/10/09 01:12:37;;;;;;;6.40;2.80;;;;;;;4.65;43.24;102524.39;1834708;77;20914;-70
2021/10/09 01:15:22;;;;;;;4.87;3.15;;;;;;;4.63;42.98;102517.47;1834755;78;20974;-71
2021/10/09 01:17:50;;;;;;;9.68;3.37;;;;;;;4.60;42.96;102523.97;1835072;77;20907;-70
2021/10/09 01:20:17;;;;;;;6.40;2.70;;;;;;;4.57;43.02;102521.80;1835078;76;20962;-71
2021/10/09 01:22:46;;;;;;;9.08;3.35;;;;;;;4.56;43.26;102517.94;1806961;78;21545;-70
2021/10/09 01:25:14;;;;;;;6.05;3.22;;;;;;;4.53;42.97;102513.59;1835025;76;20823;-70
2021/10/09 01:27:41;;;;;;;4.45;2.85;;;;;;;4.52;43.19;102514.47;1834648;77;21558;-70
2021/10/09 01:30:09;;;;;;;9.43;3.25;;;;;;;4.49;43.13;102514.50;1835119;77;20926;-71
2021/10/09 01:32:36;;;;;;;13.53;3.47;;;;;;;4.49;43.18;102520.99;1835005;76;21039;-70
2021/10/09 01:35:06;;;;;;;6.35;3.12;;;;;;;4.47;43.40;102515.34;1835097;77;21495;-70
2021/10/09 01:37:38;;;;;;;5.85;3.10;;;;;;;4.45;43.55;102516.67;1834356;77;20856;-70
2021/10/09 01:40:08;;;;;;;6.95;3.27;;;;;;;4.43;43.72;102518.86;1834758;77;21356;-70
2021/10/09 01:42:37;;;;;;;7.85;3.15;;;;;;;4.40;43.50;102517.11;1834679;77;20969;-71
2021/10/09 01:45:06;;;;;;;7.42;3.02;;;;;;;4.39;43.63;102517.98;1834827;77;20820;-71
2021/10/09 01:47:40;;;;;;;7.15;2.58;;;;;;;4.36;43.39;102518.87;1834660;77;21140;-70
2021/10/09 01:50:09;;;;;;;6.28;2.98;;;;;;;4.34;43.55;102512.81;1806744;78;20926;-70
2021/10/09 01:52:36;;;;;;;8.58;3.12;;;;;;;4.33;43.62;102516.70;1834688;76;20844;-70
2021/10/09 01:55:04;;;;;;;9.05;3.52;;;;;;;4.31;43.36;102518.44;1834783;77;21365;-71
2021/10/09 01:57:32;;;;;;;6.90;2.80;;;;;;;4.30;43.53;102512.83;1834770;77;20867;-71
2021/10/09 01:59:59;;;;;;;8.78;3.15;;;;;;;4.29;43.70;102518.88;1834805;77;21101;-71
2021/10/09 02:02:27;;;;;;;8.15;2.33;;;;;;;4.28;43.52;102515.42;1830612;76;20886;-70
2021/10/09 02:04:54;;;;;;;4.95;2.75;;;;;;;4.26;43.56;102517.16;1835168;76;21342;-70
2021/10/09 02:07:23;;;;;;;7.15;2.85;;;;;;;4.25;43.45;102518.48;1835031;76;20860;-71
2021/10/09 02:09:52;;;;;;;4.58;2.80;;;;;;;4.23;43.54;102515.88;1834741;77;20855;-70
2021/10/09 02:12:20;;;;;;;10.95;3.27;;;;;;;4.23;43.59;102518.48;1834781;77;20954;-70
2021/10/09 02:14:51;;;;;;;6.28;2.80;;;;;;;4.23;43.48;102516.33;1834855;77;20871;-70
2021/10/09 02:28:04;;;;;;;5.90;2.75;;;;;;;4.14;43.79;102521.11;1797952;79;21321;-72
2021/10/09 02:30:32;;;;;;;4.80;2.60;;;;;;;4.14;43.99;102517.21;1798127;80;20870;-71
2021/10/09 02:32:59;;;;;;;5.83;2.33;;;;;;;4.12;44.08;102513.31;1795803;78;20958;-71
2021/10/09 02:35:27;;;;;;;6.05;3.27;;;;;;;4.09;43.99;102510.73;1795468;80;21042;-71
2021/10/09 02:37:54;;;;;;;3.37;2.05;;;;;;;4.09;44.00;102509.84;1795044;80;21554;-72
2021/10/09 02:40:21;;;;;;;4.03;2.33;;;;;;;4.08;44.09;102512.88;1786313;80;20908;-71
2021/10/09 02:42:47;;;;;;;6.25;2.30;;;;;;;4.05;44.09;102514.20;1786664;80;20975;-70
2021/10/09 02:45:15;;;;;;;4.33;2.27;;;;;;;4.04;44.04;102521.55;1786351;80;20915;-71
2021/10/09 02:47:43;;;;;;;5.25;2.30;;;;;;;4.03;44.12;102515.08;1786350;80;20946;-70
2021/10/09 02:50:13;;;;;;;9.68;3.75;;;;;;;4.01;44.17;102516.37;1786338;80;21118;-71
2021/10/09 02:52:39;;;;;;;6.92;2.67;;;;;;;4.01;44.18;102518.11;1786453;80;21605;-71
2021/10/09 02:55:08;;;;;;;4.80;2.67;;;;;;;4.00;44.51;102520.25;1786238;80;20939;-71
2021/10/09 02:57:36;;;;;;;5.83;2.95;;;;;;;3.99;44.60;102523.29;1786510;80;20940;-69
2021/10/09 03:00:07;;;;;;;8.98;2.98;;;;;;;3.98;44.33;102520.28;1786199;80;20911;-70
2021/10/09 03:02:34;;;;;;;5.55;2.90;;;;;;;3.96;44.59;102516.82;1829062;77;21127;-71
2021/10/09 03:05:04;;;;;;;5.75;2.72;;;;;;;3.94;44.62;102512.92;1857185;76;20895;-73
2021/10/09 03:07:32;;;;;;;6.03;2.50;;;;;;;3.94;44.82;102512.06;1859998;76;20954;-70
2021/10/09 03:09:59;;;;;;;6.83;2.45;;;;;;;3.92;44.75;102511.20;1859946;77;20892;-72
2021/10/09 03:12:26;;;;;;;10.35;2.92;;;;;;;3.91;44.78;102510.75;1859907;77;20828;-73
2021/10/09 03:14:53;;;;;;;4.15;2.83;;;;;;;3.89;44.87;102519.86;1860306;77;21515;-70
2021/10/09 03:17:20;;;;;;;6.55;2.62;;;;;;;3.88;45.18;102520.71;1859843;77;20899;-71
2021/10/09 03:19:47;;;;;;;6.75;2.92;;;;;;;3.88;44.93;102514.66;1860159;77;20985;-71
2021/10/09 03:22:14;;;;;;;7.30;3.05;;;;;;;3.87;44.84;102515.55;1859859;77;20920;-71
2021/10/09 03:24:41;;;;;;;2.87;2.37;;;;;;;3.85;45.06;102503.00;1859817;77;20872;-70
2021/10/09 03:27:09;;;;;;;6.25;2.87;;;;;;;3.84;45.06;102515.53;1859997;76;21024;-70
2021/10/09 03:29:36;;;;;;;5.33;3.55;;;;;;;3.82;45.11;102518.55;1859932;77;20872;-71
2021/10/09 03:32:04;;;;;;;7.00;2.62;;;;;;;3.80;45.05;102508.61;1859926;77;20859;-71
2021/10/09 03:34:33;;;;;;;5.70;2.67;;;;;;;3.78;45.18;102511.64;1859975;77;20926;-70
2021/10/09 03:37:01;;;;;;;7.15;2.87;;;;;;;3.77;45.16;102514.67;1860029;77;20950;-70
2021/10/09 03:39:30;;;;;;;7.80;3.27;;;;;;;3.76;45.26;102516.84;1853873;77;21394;-71
2021/10/09 03:42:05;;;;;;;7.20;2.95;;;;;;;3.75;45.35;102516.41;1849060;77;20893;-69
2021/10/09 03:44:27;;;;;;;5.33;3.20;;;;;;;3.73;45.34;102511.64;1847046;77;20854;-70
2021/10/09 03:47:02;;;;;;;8.43;3.70;;;;;;;3.71;45.47;102510.38;1849051;77;20886;-69
2021/10/09 03:49:39;;;;;;;10.98;2.72;;;;;;;3.70;45.44;102509.06;1847400;77;20902;-70
2021/10/09 03:54:37;;;;;;;6.85;2.87;;;;;;;3.66;45.58;102504.73;1848935;76;21433;-71
2021/10/09 03:57:05;;;;;;;10.15;3.00;;;;;;;3.64;45.54;102504.73;1849022;77;20854;-71
2021/10/09 03:59:33;;;;;;;7.85;3.45;;;;;;;3.63;45.61;102513.39;1849041;77;20949;-70
2021/10/09 04:02:00;;;;;;;4.70;3.25;;;;;;;3.62;45.78;102511.65;1849426;76;20968;-71
2021/10/09 04:04:28;;;;;;;11.28;3.35;;;;;;;3.62;45.68;102513.38;1849281;77;21141;-71
2021/10/09 04:06:55;;;;;;;10.58;4.00;;;;;;;3.62;45.75;102518.13;1849373;77;20830;-70
2021/10/09 04:09:23;;;;;;;8.08;3.08;;;;;;;3.62;46.07;102523.76;1848965;77;20842;-71
2021/10/09 04:11:50;;;;;;;7.50;3.75;;;;;;;3.62;46.10;102528.51;1849328;77;20905;-70
2021/10/09 04:14:17;;;;;;;8.55;3.20;;;;;;;3.62;45.87;102527.66;1849119;76;20838;-70
2021/10/09 04:16:46;;;;;;;8.25;3.42;;;;;;;3.61;46.09;102526.80;1849184;77;20850;-70
2021/10/09 04:19:12;;;;;;;14.65;3.80;;;;;;;3.61;45.97;102526.80;1849015;76;20822;-71
2021/10/09 04:21:40;;;;;;;6.90;3.35;;;;;;;3.62;46.05;102525.05;1849384;76;20878;-70
2021/10/09 04:24:08;;;;;;;12.60;4.42;;;;;;;3.63;46.06;102525.07;1849066;77;20968;-70
2021/10/09 04:26:36;;;;;;;7.62;3.50;;;;;;;3.63;46.20;102527.66;1849550;77;20964;-72
2021/10/09 04:29:03;;;;;;;8.15;3.35;;;;;;;3.64;45.97;102529.38;1849268;76;21793;-72
2021/10/09 04:31:30;;;;;;;9.85;3.50;;;;;;;3.66;46.00;102531.98;1849024;76;20908;-72
2021/10/09 04:33:57;;;;;;;13.53;3.50;;;;;;;3.66;46.03;102529.39;1849194;77;21303;-70
2021/10/09 04:36:25;;;;;;;8.13;3.67;;;;;;;3.67;46.10;102533.73;1849473;77;20936;-71
2021/10/09 04:38:52;;;;;;;10.98;4.17;;;;;;;3.70;46.07;102534.57;1846539;75;20887;-70
2021/10/09 04:41:19;;;;;;;8.28;3.35;;;;;;;3.72;46.17;102529.39;1835243;77;21508;-71
2021/10/09 04:43:45;;;;;;;5.47;2.85;;;;;;;3.74;46.37;102543.23;1834763;77;20918;-73
2021/10/09 04:46:14;;;;;;;4.70;2.90;;;;;;;3.76;46.11;102541.50;1835150;77;20894;-73
2021/10/09 04:48:41;;;;;;;8.75;3.22;;;;;;;3.78;46.11;102542.77;1834277;77;21461;-72
2021/10/09 04:51:10;;;;;;;8.38;3.20;;;;;;;3.80;45.87;102538.05;1834813;77;20930;-72
2021/10/09 04:53:37;;;;;;;9.65;3.05;;;;;;;3.84;45.93;102541.48;1834535;77;21181;-72
2021/10/09 04:56:05;;;;;;;5.87;3.75;;;;;;;3.91;46.07;102544.09;1835139;77;20863;-72
2021/10/09 04:58:34;;;;;;;5.08;3.50;;;;;;;4.03;45.94;102537.14;1834895;76;21329;-72
2021/10/09 05:01:01;;;;;;;15.65;4.40;;;;;;;4.12;46.09;102542.31;1834850;76;20926;-73
2021/10/09 05:03:27;;;;;;;6.42;3.65;;;;;;;4.19;45.34;102540.56;1835023;76;20930;-73
2021/10/09 05:05:54;;;;;;;7.70;4.20;;;;;;;4.23;45.42;102540.55;1834629;78;21098;-71
2021/10/09 05:08:21;;;;;;;8.38;3.25;;;;;;;4.29;45.66;102539.66;1834603;77;21407;-71
2021/10/09 05:10:48;;;;;;;8.08;4.17;;;;;;;4.36;45.50;102538.35;1834843;77;20946;-71
2021/10/09 05:13:17;;;;;;;9.45;3.77;;;;;;;4.45;45.82;102538.75;1834710;77;21002;-72
2021/10/09 05:15:47;;;;;;;8.63;3.52;;;;;;;4.54;45.62;102540.46;1834813;77;20871;-72
2021/10/09 05:18:16;;;;;;;20.12;5.53;;;;;;;4.64;45.35;102535.63;1834449;76;20940;-72
2021/10/09 05:20:42;;;;;;;6.50;3.83;;;;;;;4.82;45.52;102539.02;1834697;76;21508;-72
2021/10/09 05:23:11;;;;;;;11.30;3.45;;;;;;;5.16;45.29;102529.31;1834889;76;21380;-73
2021/10/09 05:25:41;;;;;;;12.75;4.33;;;;;;;5.50;44.44;102532.95;1834603;78;20899;-72
2021/10/09 05:28:15;;;;;;;11.55;3.85;;;;;;;5.91;43.59;102523.45;1834678;76;20899;-72
2021/10/09 05:30:45;;;;;;;9.00;4.05;;;;;;;6.42;43.11;102525.55;1833266;77;21167;-73
2021/10/09 05:35:51;;;;;;;;;;;;;;;6.96;41.38;102520.52;1837439;77;20899;-73
2021/10/09 05:38:18;;;;;;;14.30;3.87;;;;;;;7.37;40.42;102520.77;1834669;77;20125;-73
2021/10/09 05:40:47;;;;;;;7.95;4.10;;;;;;;8.02;39.73;102517.89;1855739;77;21401;-73
2021/10/09 05:43:16;;;;;;;6.50;3.40;;;;;;;8.84;37.83;102502.74;1859937;77;21183;-73
2021/10/09 05:45:43;;;;;;;7.35;3.85;;;;;;;9.67;37.03;102508.59;1859877;77;20899;-72
2021/10/09 05:48:12;;;;;;;6.10;4.42;;;;;;;10.43;35.64;102503.06;1859939;76;20898;-72
2021/10/09 05:50:52;;;;;;;12.05;3.72;;;;;;;11.16;34.28;102499.95;1859887;77;20871;-74
2021/10/09 05:53:29;;;;;;;9.75;3.77;;;;;;;11.90;33.44;102501.90;1858876;76;20887;-73
2021/10/09 05:58:45;;;;;;;9.83;3.92;;;;;;;13.28;31.38;102497.97;1859768;77;20895;-73
2021/10/09 06:42:30;;;;;;;12.30;4.33;;;;;;;15.86;25.71;102493.06;1762660;77;20903;-75
2021/10/09 06:44:59;;;;;;;10.65;4.42;;;;;;;15.20;26.41;102499.01;1853230;76;21301;-75
2021/10/09 06:49:50;;;;;;;16.07;4.40;;;;;;;14.08;27.57;102501.14;1860094;77;21103;-75
2021/10/09 07:00:23;;;;;;;11.70;4.17;;;;;;;12.40;30.30;102509.24;1859922;76;20918;-77
2021/10/09 07:02:51;;;;;;;11.18;4.25;;;;;;;12.19;30.70;102511.37;1859864;76;21962;-75
2021/10/09 07:05:18;;;;;;;11.60;4.10;;;;;;;12.24;31.33;102514.22;1859820;77;20969;-75
2021/10/09 07:08:02;;;;;;;14.43;4.58;;;;;;;12.69;30.64;102503.80;1858061;77;20918;-75
2021/10/09 07:10:26;;;;;;;12.07;5.33;;;;;;;13.36;29.75;102499.83;1857878;77;21401;-76
2021/10/09 07:12:53;;;;;;;12.70;4.87;;;;;;;14.03;28.95;102492.58;1860131;77;20868;-76
2021/10/09 07:15:21;;;;;;;12.75;4.40;;;;;;;14.73;28.61;102494.25;1860269;77;22135;-78
2021/10/09 07:17:48;;;;;;;10.35;4.50;;;;;;;15.38;27.59;102495.44;1859880;77;20935;-77
2021/10/09 07:20:18;;;;;;;8.48;4.80;;;;;;;16.02;26.89;102493.95;1860281;77;20858;-75
2021/10/09 07:22:47;;;;;;;7.47;3.75;;;;;;;16.73;25.97;102486.13;1859980;77;20868;-75
2021/10/09 07:25:13;;;;;;;19.45;4.83;;;;;;;17.32;25.25;102477.03;1829344;77;20898;-75
2021/10/09 07:27:40;;;;;;;11.78;4.67;;;;;;;17.82;24.58;102485.13;1860136;77;22158;-74
2021/10/09 07:30:08;;;;;;;13.88;5.28;;;;;;;18.26;23.43;102486.84;1859740;77;20923;-76
2021/10/09 07:32:36;;;;;;;10.05;5.80;;;;;;;18.56;23.26;102482.70;1859795;77;21325;-74
2021/10/09 07:35:05;;;;;;;16.15;5.60;;;;;;;18.90;23.25;102479.24;1860208;76;20943;-71
2021/10/09 07:37:33;;;;;;;9.78;6.25;;;;;;;19.17;22.32;102476.55;1859896;77;20970;-74
2021/10/09 07:40:00;;;;;;;9.88;5.30;;;;;;;19.30;22.26;102474.39;1859870;76;21510;-74
2021/10/09 07:42:27;;;;;;;12.70;5.87;;;;;;;19.50;22.08;102486.34;1859633;77;20907;-72
2021/10/09 07:44:54;;;;;;;11.08;4.80;;;;;;;19.66;22.20;102479.03;1859895;77;20875;-74
2021/10/09 07:47:21;;;;;;;10.15;5.35;;;;;;;19.83;21.95;102477.42;1859874;77;21333;-73
2021/10/09 07:49:47;;;;;;;7.30;4.60;;;;;;;19.93;21.66;102476.77;1860171;77;20958;-72
2021/10/09 07:52:14;;;;;;;10.00;5.00;;;;;;;19.99;21.38;102469.69;1859871;77;21133;-75
2021/10/09 07:54:41;;;;;;;8.70;4.97;;;;;;;19.94;21.15;102463.81;1859761;77;21418;-74
2021/10/09 07:57:07;;;;;;;6.95;5.08;;;;;;;19.97;21.08;102464.95;1859839;77;20914;-72
2021/10/09 07:59:34;;;;;;;14.78;5.42;;;;;;;20.13;20.34;102461.56;1860066;77;21379;-71
2021/10/09 08:02:01;;;;;;;16.02;6.25;;;;;;;20.23;20.53;102467.06;1860007;76;20891;-71
2021/10/09 08:04:29;;;;;;;13.95;6.42;;;;;;;20.33;20.43;102459.28;1860455;76;21338;-72
2021/10/09 08:06:56;;;;;;;11.28;5.85;;;;;;;20.53;20.17;102453.35;1860146;77;20902;-72
2021/10/09 08:09:26;;;;;;;13.78;6.45;;;;;;;20.80;20.11;102452.31;1860132;76;21552;-72
2021/10/09 08:11:54;;;;;;;8.30;6.22;;;;;;;21.11;19.79;102454.87;1859984;77;20887;-71
2021/10/09 08:14:20;;;;;;;13.22;7.10;;;;;;;21.45;19.64;102450.49;1860058;77;20875;-72
2021/10/09 08:16:47;;;;;;;13.35;8.00;;;;;;;21.69;18.62;102442.40;1860267;77;21068;-74
2021/10/09 08:19:14;;;;;;;13.72;7.45;;;;;;;21.82;17.74;102448.13;1859939;77;20879;-74
2021/10/09 08:21:42;;;;;;;12.35;7.28;;;;;;;21.73;17.97;102439.86;1860315;76;21516;-74
2021/10/09 08:24:25;;;;;;;15.58;6.87;;;;;;;21.69;18.10;102446.90;1859904;77;20915;-74
2021/10/09 08:40:15;;;;;;;18.67;7.22;;;;;;;22.64;17.68;102443.80;1858114;77;21049;-71
2021/10/09 08:42:42;;;;;;;16.90;8.40;;;;;;;22.91;17.50;102445.50;1849250;76;21508;-70
2021/10/09 08:45:10;;;;;;;14.10;6.60;;;;;;;23.14;17.13;102444.09;1849494;77;20917;-76
2021/10/09 08:47:38;;;;;;;16.15;5.92;;;;;;;23.27;16.87;102442.06;1849263;76;21400;-71
2021/10/09 08:50:08;;;;;;;13.45;6.45;;;;;;;23.40;17.29;102437.02;1849496;77;20917;-71
2021/10/09 08:52:36;;;;;;;12.65;6.83;;;;;;;23.50;16.71;102450.83;1849247;77;20826;-71
2021/10/09 08:55:23;;;;;;;17.20;7.33;;;;;;;23.53;15.96;102441.17;1849568;77;21078;-72
2021/10/09 08:57:51;;;;;;;11.55;7.12;;;;;;;23.52;15.92;102439.96;1849103;77;20983;-70
2021/10/09 09:00:23;;;;;;;10.35;6.70;;;;;;;23.40;15.81;102434.34;1849418;77;20995;-72
2021/10/09 09:03:03;;;;;;;17.70;6.75;;;;;;;23.24;16.00;102432.97;1849091;77;20909;-71
2021/10/09 09:08:22;;;;;;;11.55;6.15;;;;;;;22.37;16.05;102425.50;1849334;77;21080;-74
2021/10/09 09:35:48;;;;;;;10.70;3.77;;;;;;;19.28;17.40;102427.95;1849327;76;21032;-76
2021/10/09 09:41:24;;;;;;;14.78;3.77;;;;;;;20.03;17.33;102421.88;1854131;75;20943;-83
2021/10/09 09:43:54;;;;;;;6.95;3.10;;;;;;;20.46;16.87;102409.46;1859329;76;20832;-82
2021/10/09 09:46:24;;;;;;;10.20;3.22;;;;;;;20.64;16.83;102395.28;1860240;77;20856;-79
2021/10/09 09:48:51;;;;;;;4.17;2.45;;;;;;;20.77;16.61;102399.23;1860031;77;21144;-81
2021/10/09 09:51:20;;;;;;;6.55;2.30;;;;;;;20.80;16.12;102393.66;1859889;77;20950;-77
2021/10/09 09:53:48;;;;;;;11.25;3.00;;;;;;;20.82;16.34;102391.23;1860048;76;20828;-80
2021/10/09 09:56:16;;;;;;;11.00;2.70;;;;;;;20.89;16.34;102384.45;1859902;77;20848;-78
2021/10/09 09:58:47;;;;;;;6.95;1.80;;;;;;;20.81;16.12;102376.67;1859957;77;20939;-79
2021/10/09 10:01:14;;;;;;;10.08;2.25;;;;;;;20.60;16.25;102382.66;1860022;77;21261;-79
2021/10/09 10:03:46;;;;;;;5.55;2.58;;;;;;;20.38;16.40;102387.84;1859918;77;20883;-77
2021/10/09 10:06:13;;;;;;;7.00;2.42;;;;;;;20.13;16.70;102395.45;1829831;77;20897;-79
2021/10/09 10:08:41;;;;;;;10.88;2.70;;;;;;;19.96;16.89;102393.98;1859967;76;20923;-80
2021/10/09 10:11:13;;;;;;;9.68;2.75;;;;;;;19.72;16.18;102393.91;1859853;77;21034;-84
2021/10/09 10:13:41;;;;;;;9.40;2.25;;;;;;;19.39;16.69;102393.48;1860215;77;21082;-80
2021/10/09 10:16:12;;;;;;;5.75;2.22;;;;;;;19.31;17.15;102382.51;1859920;76;20911;-77
2021/10/09 10:18:51;;;;;;;7.85;2.35;;;;;;;19.44;16.70;102385.18;1860353;76;20923;-78
2021/10/09 10:21:38;;;;;;;13.28;2.30;;;;;;;19.53;16.65;102381.03;1859844;77;20934;-79
2021/10/09 10:24:10;;;;;;;6.12;2.33;;;;;;;19.57;16.43;102380.70;1847238;77;20993;-77
2021/10/09 10:26:38;;;;;;;11.08;2.27;;;;;;;19.63;16.94;102364.77;1859953;76;21172;-80
2021/10/09 10:29:16;;;;;;;9.18;2.45;;;;;;;19.65;16.55;102362.85;1860181;76;20859;-79
2021/10/09 10:32:09;;;;;;;11.60;2.85;;;;;;;19.51;16.76;102374.47;1860460;77;21306;-78
2021/10/09 10:34:36;;;;;;;6.62;2.15;;;;;;;19.23;16.78;102367.09;1860026;76;21005;-75
2021/10/09 10:37:02;;;;;;;12.53;2.55;;;;;;;18.77;17.17;102364.02;1859871;77;21368;-75
2021/10/09 10:39:40;;;;;;;5.67;2.08;;;;;;;18.44;17.04;102359.48;1859873;76;20890;-76
2021/10/09 10:42:28;;;;;;;13.38;2.58;;;;;;;18.08;17.17;102364.54;1851929;76;20917;-83
2021/10/09 10:48:16;;;;;;;12.70;2.35;;;;;;;17.24;18.10;102357.33;1849091;77;21449;-73
2021/10/09 10:51:03;;;;;;;5.78;1.75;;;;;;;17.00;18.45;102356.52;1847433;77;21342;-75
2021/10/09 10:53:59;;;;;;;6.75;2.00;;;;;;;16.76;18.90;102356.13;1848265;77;21562;-70
2021/10/09 10:56:24;;;;;;;6.70;1.98;;;;;;;16.57;19.16;102361.17;1783965;79;20907;-67
2021/10/09 10:58:51;;;;;;;6.58;2.12;;;;;;;16.50;19.05;102344.41;1783758;79;20892;-66
2021/10/09 11:01:25;;;;;;;3.20;2.08;;;;;;;16.46;19.29;102350.34;1758428;79;20880;-68
2021/10/09 11:03:57;;;;;;;6.50;2.30;;;;;;;16.47;19.27;102353.84;1758050;80;20915;-67
2021/10/09 11:06:26;;;;;;;5.50;2.22;;;;;;;16.42;19.36;102359.39;1783582;80;21030;-68
2021/10/09 11:08:56;;;;;;;8.40;1.87;;;;;;;16.39;19.61;102355.61;1783585;79;21381;-69
2021/10/09 11:11:42;;;;;;;7.05;2.00;;;;;;;16.31;19.47;102352.53;1783426;80;21489;-66
2021/10/09 11:14:06;;;;;;;7.72;2.30;;;;;;;16.27;19.52;102351.84;1783641;80;20895;-67
2021/10/09 11:16:33;;;;;;;8.95;2.12;;;;;;;16.28;19.79;102361.51;1783766;79;20833;-67
2021/10/09 11:19:00;;;;;;;5.30;2.20;;;;;;;16.26;19.39;102359.41;1783933;79;21105;-67
2021/10/09 11:21:27;;;;;;;6.70;2.08;;;;;;;16.15;18.93;102365.78;1783501;79;20892;-67
2021/10/09 11:24:02;;;;;;;4.62;2.45;;;;;;;16.02;19.42;102356.81;1783913;79;21014;-69
2021/10/09 11:26:27;;;;;;;8.30;2.35;;;;;;;15.88;19.75;102366.84;1782054;80;20887;-69
2021/10/09 11:29:06;;;;;;;8.90;2.00;;;;;;;15.73;19.95;102346.88;1783834;79;20848;-67
2021/10/09 11:31:36;;;;;;;10.60;2.12;;;;;;;15.53;19.99;102362.45;1801902;77;21416;-69
2021/10/09 11:34:04;;;;;;;7.47;2.27;;;;;;;15.36;20.47;102353.70;1849316;77;20842;-67
2021/10/09 11:36:34;;;;;;;5.42;1.80;;;;;;;15.26;20.80;102347.58;1849061;77;20950;-78
2021/10/09 11:39:13;;;;;;;9.93;1.90;;;;;;;15.21;21.08;102351.41;1798346;77;20972;-75
2021/10/09 11:41:42;;;;;;;5.08;2.42;;;;;;;15.10;20.84;102343.56;1852711;75;20883;-73
2021/10/09 11:44:24;;;;;;;9.18;2.20;;;;;;;14.97;20.82;102334.55;1859935;76;21120;-73
2021/10/09 11:56:09;;;;;;;5.97;2.35;;;;;;;14.85;21.70;102341.32;1797674;79;22609;-73
2021/10/09 11:58:59;;;;;;;7.03;2.00;;;;;;;14.73;21.91;102341.92;1758217;80;20920;-72
2021/10/09 12:01:38;;;;;;;9.20;3.65;;;;;;;14.61;21.85;102344.72;1758214;81;21800;-71
2021/10/09 12:04:17;;;;;;;9.85;2.30;;;;;;;14.48;22.30;102343.10;1758246;80;20970;-78
2021/10/09 12:07:00;;;;;;;6.40;2.52;;;;;;;14.39;22.36;102335.63;1758260;80;21114;-76
2021/10/09 12:09:57;;;;;;;8.60;2.75;;;;;;;14.30;22.31;102349.28;1756637;81;21386;-72
2021/10/09 12:12:22;;;;;;;13.98;4.53;;;;;;;14.08;22.46;102331.82;1755710;80;20944;-71
2021/10/09 12:14:54;;;;;;;10.30;2.65;;;;;;;14.08;22.46;102331.82;1758467;80;21036;-72
2021/10/09 12:17:25;;;;;;;3.75;2.72;;;;;;;13.98;22.64;102333.17;1758278;80;20896;-71
2021/10/09 12:19:59;;;;;;;4.83;2.72;;;;;;;13.89;23.05;102326.57;1757597;80;20917;-74
2021/10/09 12:22:26;;;;;;;8.10;2.65;;;;;;;13.85;23.13;102324.12;1758282;81;21465;-72
2021/10/09 12:24:54;;;;;;;3.83;2.80;;;;;;;13.76;23.34;102310.92;1758523;80;20920;-73
2021/10/09 12:27:26;;;;;;;4.58;2.27;;;;;;;13.75;23.66;102316.26;1758197;80;21131;-74
2021/10/09 12:30:09;;;;;;;9.53;2.67;;;;;;;13.72;23.97;102312.42;1758764;80;21359;-74
2021/10/09 12:32:42;;;;;;;10.15;3.15;;;;;;;13.68;24.22;102304.67;1758297;81;20897;-74
2021/10/09 12:35:18;;;;;;;5.28;2.75;;;;;;;13.64;24.11;102292.55;1758439;80;21473;-74
2021/10/09 12:38:05;;;;;;;12.70;3.02;;;;;;;13.57;23.47;102293.77;1758404;80;20917;-72
2021/10/09 12:40:48;;;;;;;13.13;3.08;;;;;;;13.52;23.66;102287.86;1758513;80;21474;-73
2021/10/09 12:43:20;;;;;;;6.87;3.05;;;;;;;13.48;23.72;102278.38;1758208;80;20884;-74
2021/10/09 12:45:47;;;;;;;12.03;2.47;;;;;;;13.44;23.90;102272.38;1758229;80;21445;-74
2021/10/09 12:48:17;;;;;;;8.25;3.08;;;;;;;13.42;24.05;102275.54;1758171;81;20856;-75
2021/10/09 12:50:43;;;;;;;7.12;2.70;;;;;;;13.37;23.87;102270.95;1758523;80;20930;-74
2021/10/09 12:53:10;;;;;;;10.85;3.50;;;;;;;13.32;23.87;102265.48;1758240;81;21549;-74
2021/10/09 12:55:37;;;;;;;16.80;5.45;;;;;;;13.27;23.83;102257.75;1758212;80;21631;-75
2021/10/09 12:58:08;;;;;;;6.50;2.80;;;;;;;13.23;24.12;102263.64;1758383;80;20892;-75
2021/10/09 13:00:36;;;;;;;16.67;3.02;;;;;;;13.20;24.08;102257.64;1758767;81;20959;-75
2021/10/09 13:03:04;;;;;;;7.15;2.52;;;;;;;13.18;24.02;102273.51;1758454;81;20940;-76
2021/10/09 13:05:31;;;;;;;10.05;2.90;;;;;;;13.17;23.96;102265.70;1758660;81;21547;-76
2021/10/09 13:08:02;;;;;;;7.33;2.60;;;;;;;13.14;23.98;102270.64;1757835;81;20932;-76
2021/10/09 13:10:33;;;;;;;11.88;3.37;;;;;;;13.12;23.87;102271.17;1757991;80;21007;-76
2021/10/09 13:12:58;;;;;;;8.03;3.22;;;;;;;13.09;24.04;102267.33;1756101;81;21018;-75
2021/10/09 13:15:25;;;;;;;8.43;3.05;;;;;;;13.05;23.86;102280.27;1756522;81;20964;-76
2021/10/09 13:17:53;;;;;;;6.37;3.55;;;;;;;13.04;24.07;102288.61;1756219;81;21129;-75
2021/10/09 13:20:20;;;;;;;12.63;3.55;;;;;;;13.06;24.11;102293.82;1758061;81;20888;-74
2021/10/09 13:22:48;;;;;;;12.07;3.75;;;;;;;13.10;24.30;102293.23;1757993;81;20944;-77
2021/10/09 13:25:15;;;;;;;12.07;3.72;;;;;;;13.11;24.61;102289.20;1757818;81;20935;-77
2021/10/09 13:27:42;;;;;;;12.80;3.75;;;;;;;13.10;24.28;102281.38;1758007;81;20881;-78
2021/10/09 13:30:11;;;;;;;16.10;4.37;;;;;;;13.09;24.24;102279.66;1757876;80;21545;-79
2021/10/09 13:32:39;;;;;;;11.78;3.45;;;;;;;13.06;24.17;102268.80;1756731;81;20971;-77
2021/10/09 13:35:07;;;;;;;11.03;3.70;;;;;;;13.03;24.40;102277.69;1757220;81;21537;-76
2021/10/09 13:37:47;;;;;;;8.10;3.67;;;;;;;13.03;24.37;102291.33;1757768;81;20896;-79
2021/10/09 13:40:14;;;;;;;9.43;3.95;;;;;;;13.04;24.44;102307.05;1757221;80;20932;-80
2021/10/09 13:42:42;;;;;;;10.25;3.75;;;;;;;13.05;24.42;102297.39;1757694;81;21599;-79
2021/10/09 13:45:09;;;;;;;10.63;3.95;;;;;;;13.05;24.60;102292.97;1756835;80;22102;-79